createdAt,value
2023-03-29T00:00:22.341Z,94872.84
2023-03-29T00:02:49.397Z,94867.56
2023-03-29T00:05:19.818Z,94853.66
2023-03-29T00:07:46.538Z,94861.47
2023-03-29T00:10:13.250Z,94869.31
2023-03-29T00:12:40.398Z,94878.78
2023-03-29T00:15:08.944Z,94890.31
2023-03-29T00:17:36.867Z,94899.66
2023-03-29T00:20:07.120Z,94892.66
2023-03-29T00:22:34.580Z,94888.88
2023-03-29T00:25:01.707Z,94883.53
2023-03-29T00:27:28.718Z,94881.84
2023-03-29T00:29:58.179Z,94884.09
2023-03-29T00:32:25.204Z,94883.81
2023-03-29T00:34:54.737Z,94880.34
2023-03-29T00:37:22.951Z,94873.91
2023-03-29T00:39:50.013Z,94873.28
2023-03-29T00:42:17.242Z,94860.81
2023-03-29T00:45:15.201Z,94856.00
2023-03-29T00:47:44.024Z,94864.78
2023-03-29T00:50:15.283Z,94868.66
2023-03-29T00:52:43.523Z,94839.09
2023-03-29T00:55:14.581Z,94840.00
2023-03-29T00:57:42.304Z,94834.03
2023-03-29T01:00:09.416Z,94842.19
2023-03-29T01:02:36.736Z,94839.22
2023-03-29T01:05:12.243Z,94840.59
2023-03-29T01:07:43.139Z,94832.91
2023-03-29T01:10:15.984Z,94834.50
2023-03-29T01:12:50.263Z,94828.03
2023-03-29T01:15:22.830Z,94834.66
2023-03-29T01:17:49.597Z,94810.22
2023-03-29T01:20:38.124Z,94817.66
2023-03-29T01:23:23.313Z,94823.19
2023-03-29T01:26:15.033Z,94835.44
2023-03-29T01:28:47.381Z,94829.41
2023-03-29T01:31:18.639Z,94847.25
2023-03-29T01:33:49.628Z,94829.41
2023-03-29T01:36:35.749Z,94831.69
2023-03-29T01:39:06.183Z,94820.22
2023-03-29T01:41:54.045Z,94823.53
2023-03-29T01:44:38.193Z,94818.09
2023-03-29T01:47:13.002Z,94813.88
2023-03-29T01:49:49.225Z,94812.66
2023-03-29T01:52:18.956Z,94840.31
2023-03-29T01:54:50.315Z,94869.78
2023-03-29T01:57:17.482Z,94870.09
2023-03-29T01:59:44.232Z,94850.66
2023-03-29T02:02:14.947Z,94853.72
2023-03-29T02:04:47.369Z,94862.75
2023-03-29T02:07:14.447Z,94840.91
2023-03-29T02:09:41.126Z,94849.19
2023-03-29T02:12:08.360Z,94843.81
2023-03-29T02:14:36.413Z,94818.97
2023-03-29T02:17:20.261Z,94831.38
2023-03-29T02:19:48.844Z,94808.88
2023-03-29T02:22:16.076Z,94821.03
2023-03-29T02:24:42.864Z,94835.22
2023-03-29T02:27:09.896Z,94836.22
2023-03-29T02:29:37.713Z,94851.84
2023-03-29T02:32:15.852Z,94846.91
2023-03-29T02:34:46.598Z,94831.91
2023-03-29T02:37:14.848Z,94844.16
2023-03-29T02:39:41.645Z,94852.16
2023-03-29T02:42:11.360Z,94857.59
2023-03-29T02:44:39.582Z,94834.09
2023-03-29T02:47:08.889Z,94842.72
2023-03-29T02:49:36.598Z,94850.41
2023-03-29T02:52:08.984Z,94835.84
2023-03-29T02:54:36.080Z,94831.13
2023-03-29T02:57:04.109Z,94824.72
2023-03-29T02:59:32.011Z,94848.84
2023-03-29T03:01:59.051Z,94847.88
2023-03-29T03:04:28.877Z,94846.47
2023-03-29T03:06:55.961Z,94834.59
2023-03-29T03:09:22.898Z,94840.88
2023-03-29T03:11:49.969Z,94839.09
2023-03-29T03:14:16.992Z,94823.84
2023-03-29T03:16:44.559Z,94818.84
2023-03-29T03:19:12.914Z,94821.59
2023-03-29T03:21:41.163Z,94806.06
2023-03-29T03:24:10.625Z,94819.16
2023-03-29T03:26:37.643Z,94816.97
2023-03-29T03:29:07.179Z,94823.97
2023-03-29T03:31:36.734Z,94827.44
2023-03-29T03:34:03.452Z,94858.63
2023-03-29T03:36:30.543Z,94869.84
2023-03-29T03:39:00.304Z,94851.25
2023-03-29T03:41:27.104Z,94844.81
2023-03-29T03:43:55.110Z,94823.59
2023-03-29T03:46:21.868Z,94810.91
2023-03-29T03:48:48.650Z,94802.44
2023-03-29T03:51:15.353Z,94789.78
2023-03-29T03:53:42.105Z,94798.16
2023-03-29T03:56:09.696Z,94800.63
2023-03-29T03:58:39.615Z,94809.00
2023-03-29T04:01:07.411Z,94788.19
2023-03-29T04:03:35.812Z,94796.13
2023-03-29T04:06:05.775Z,94792.69
2023-03-29T04:08:33.518Z,94798.31
2023-03-29T04:11:03.333Z,94792.81
2023-03-29T04:13:31.711Z,94792.53
2023-03-29T04:16:01.413Z,94789.22
2023-03-29T04:18:31.410Z,94791.59
2023-03-29T04:20:58.747Z,94796.75
2023-03-29T04:23:26.516Z,94795.34
2023-03-29T04:25:57.745Z,94800.34
2023-03-29T04:28:24.824Z,94806.56
2023-03-29T04:30:51.973Z,94815.81
2023-03-29T04:33:19.057Z,94800.75
2023-03-29T04:35:47.176Z,94793.31
2023-03-29T04:38:14.621Z,94787.41
2023-03-29T04:40:42.731Z,94788.53
2023-03-29T04:43:09.517Z,94792.28
2023-03-29T04:45:39.018Z,94788.53
2023-03-29T04:48:06.181Z,94794.31
2023-03-29T04:50:33.797Z,94787.56
2023-03-29T04:53:00.997Z,94793.16
2023-03-29T04:55:28.166Z,94789.06
2023-03-29T04:57:55.252Z,94799.50
2023-03-29T05:00:24.981Z,94807.53
2023-03-29T05:02:52.318Z,94807.44
2023-03-29T05:05:19.568Z,94795.97
2023-03-29T05:07:47.461Z,94800.19
2023-03-29T05:10:14.187Z,94796.56
2023-03-29T05:12:41.278Z,94791.34
2023-03-29T05:15:09.785Z,94785.72
2023-03-29T05:17:36.520Z,94792.13
2023-03-29T05:20:03.328Z,94784.66
2023-03-29T05:22:32.648Z,94785.81
2023-03-29T05:24:59.672Z,94787.72
2023-03-29T05:27:29.229Z,94784.41
2023-03-29T05:29:56.527Z,94780.44
2023-03-29T05:32:23.364Z,94779.81
2023-03-29T05:34:50.420Z,94797.53
2023-03-29T05:37:17.480Z,94795.38
2023-03-29T05:39:44.468Z,94791.81
2023-03-29T05:42:12.822Z,94793.63
2023-03-29T05:44:40.109Z,94791.97
2023-03-29T05:47:06.842Z,94783.31
2023-03-29T05:49:33.744Z,94785.00
2023-03-29T05:52:00.838Z,94793.66
2023-03-29T05:54:27.897Z,94799.53
2023-03-29T05:56:54.948Z,94799.31
2023-03-29T05:59:24.617Z,94803.56
2023-03-29T06:01:51.709Z,94810.75
2023-03-29T06:04:18.516Z,94808.94
2023-03-29T06:06:45.624Z,94807.66
2023-03-29T06:09:12.674Z,94813.63
2023-03-29T06:11:39.789Z,94816.19
2023-03-29T06:14:07.032Z,94814.97
2023-03-29T06:16:34.090Z,94808.84
2023-03-29T06:19:03.596Z,94808.97
2023-03-29T06:21:30.768Z,94807.78
2023-03-29T06:24:00.349Z,94811.00
2023-03-29T06:26:27.209Z,94807.09
2023-03-29T06:28:54.075Z,94826.94
2023-03-29T06:31:20.844Z,94826.25
2023-03-29T06:33:47.963Z,94828.78
2023-03-29T06:36:17.596Z,94816.19
2023-03-29T06:38:44.691Z,94828.91
2023-03-29T06:41:11.443Z,94830.72
2023-03-29T06:43:41.607Z,94827.84
2023-03-29T06:46:08.629Z,94837.63
2023-03-29T06:48:36.653Z,94833.50
2023-03-29T06:51:04.268Z,94831.78
2023-03-29T06:53:34.501Z,94829.31
2023-03-29T06:56:01.611Z,94834.06
2023-03-29T06:58:28.691Z,94826.34
2023-03-29T07:01:02.568Z,94836.97
2023-03-29T07:03:29.758Z,94828.56
2023-03-29T07:06:03.366Z,94827.53
2023-03-29T07:08:30.533Z,94830.78
2023-03-29T07:10:57.335Z,94831.28
2023-03-29T07:13:24.016Z,94833.69
2023-03-29T07:15:51.342Z,94838.13
2023-03-29T07:18:18.482Z,94856.81
2023-03-29T07:20:45.289Z,94856.91
2023-03-29T07:23:12.322Z,94853.69
2023-03-29T07:25:39.085Z,94863.22
2023-03-29T07:28:06.210Z,94872.56
2023-03-29T07:30:34.076Z,94863.84
2023-03-29T07:33:01.911Z,94863.16
2023-03-29T07:35:29.112Z,94860.72
2023-03-29T07:38:14.718Z,94870.81
2023-03-29T07:40:42.245Z,94870.94
2023-03-29T07:43:09.006Z,94869.03
2023-03-29T07:45:38.814Z,94858.47
2023-03-29T07:48:06.952Z,94864.94
2023-03-29T07:50:34.871Z,94863.75
2023-03-29T07:53:01.921Z,94860.25
2023-03-29T07:55:29.052Z,94859.81
2023-03-29T07:57:56.407Z,94863.25
2023-03-29T08:00:23.308Z,94861.22
2023-03-29T08:02:51.022Z,94864.03
2023-03-29T08:05:26.036Z,94868.63
2023-03-29T08:07:56.300Z,94864.94
2023-03-29T08:10:26.002Z,94868.41
2023-03-29T08:12:52.856Z,94869.69
2023-03-29T08:15:20.104Z,94876.09
2023-03-29T08:17:47.666Z,94886.91
2023-03-29T08:20:15.167Z,94890.69
2023-03-29T08:22:44.716Z,94891.28
2023-03-29T08:25:11.558Z,94900.97
2023-03-29T08:27:38.864Z,94891.78
2023-03-29T08:30:06.497Z,94893.31
2023-03-29T08:32:33.836Z,94883.44
2023-03-29T08:35:06.346Z,94891.34
2023-03-29T08:37:33.513Z,94880.06
2023-03-29T08:40:00.902Z,94866.22
2023-03-29T08:43:12.533Z,94870.63
2023-03-29T08:46:13.895Z,94874.28
2023-03-29T08:48:50.090Z,94876.28
2023-03-29T08:51:27.856Z,94880.69
2023-03-29T08:54:25.970Z,94884.50
2023-03-29T08:56:53.208Z,94892.56
2023-03-29T08:59:39.739Z,94872.47
2023-03-29T09:02:12.781Z,94882.69
2023-03-29T09:04:42.734Z,94881.28
2023-03-29T09:07:10.045Z,94885.47
2023-03-29T09:09:36.813Z,94878.66
2023-03-29T09:12:21.937Z,94878.09
2023-03-29T09:14:51.492Z,94875.44
2023-03-29T09:17:39.317Z,94871.69
2023-03-29T09:20:57.515Z,94873.09
2023-03-29T09:23:43.641Z,94880.63
2023-03-29T09:26:13.595Z,94876.31
2023-03-29T09:29:18.776Z,94876.31
2023-03-29T09:31:46.075Z,94878.38
2023-03-29T09:34:30.713Z,94870.22
2023-03-29T09:37:04.322Z,94885.81
2023-03-29T09:39:33.853Z,94878.78
2023-03-29T09:42:03.228Z,94870.44
2023-03-29T09:44:38.761Z,94874.03
2023-03-29T09:47:20.520Z,94873.97
2023-03-29T09:49:49.269Z,94874.84
2023-03-29T09:52:16.467Z,94875.44
2023-03-29T09:54:43.650Z,94880.09
2023-03-29T09:57:12.060Z,94877.09
2023-03-29T09:59:39.528Z,94877.13
2023-03-29T10:02:13.130Z,94868.25
2023-03-29T10:04:40.401Z,94868.06
2023-03-29T10:07:07.175Z,94869.53
2023-03-29T10:09:34.758Z,94872.66
2023-03-29T10:12:02.193Z,94868.09
2023-03-29T10:14:44.020Z,94872.41
2023-03-29T10:17:26.054Z,94874.66
2023-03-29T10:19:56.637Z,94866.00
2023-03-29T10:22:32.318Z,94873.84
2023-03-29T10:24:59.470Z,94869.06
2023-03-29T10:27:27.542Z,94870.13
2023-03-29T10:29:54.334Z,94864.88
2023-03-29T10:32:34.777Z,94862.13
2023-03-29T10:35:22.881Z,94872.69
2023-03-29T10:37:53.483Z,94861.97
2023-03-29T10:40:31.365Z,94861.69
2023-03-29T10:43:01.908Z,94858.03
2023-03-29T10:45:30.581Z,94874.00
2023-03-29T10:47:58.464Z,94872.97
2023-03-29T10:50:27.332Z,94874.34
2023-03-29T10:52:54.920Z,94867.78
2023-03-29T10:55:22.708Z,94862.69
2023-03-29T10:58:04.472Z,94862.34
2023-03-29T11:00:49.107Z,94858.28
2023-03-29T11:03:17.032Z,94872.25
2023-03-29T11:06:03.792Z,94852.88
2023-03-29T11:08:43.549Z,94850.53
2023-03-29T11:11:22.967Z,94841.00
2023-03-29T11:13:58.064Z,94853.03
2023-03-29T11:16:37.175Z,94870.06
2023-03-29T11:19:47.501Z,94871.19
2023-03-29T11:22:25.905Z,94842.06
2023-03-29T11:25:29.108Z,94838.59
2023-03-29T11:28:06.220Z,94846.91
2023-03-29T11:31:13.082Z,94848.56
2023-03-29T11:33:58.365Z,94853.88
2023-03-29T11:36:46.056Z,94850.69
2023-03-29T11:39:29.903Z,94843.19
2023-03-29T11:42:06.443Z,94840.16
2023-03-29T11:44:34.069Z,94844.59
2023-03-29T11:47:15.810Z,94839.69
2023-03-29T11:50:01.471Z,94848.94
2023-03-29T11:52:47.175Z,94837.97
2023-03-29T11:55:24.907Z,94848.78
2023-03-29T11:58:06.370Z,94848.00
2023-03-29T12:00:39.044Z,94854.00
2023-03-29T12:03:34.758Z,94843.94
2023-03-29T12:06:44.684Z,94837.25
2023-03-29T12:09:39.684Z,94822.63
2023-03-29T12:12:17.658Z,94805.81
2023-03-29T12:15:07.062Z,94814.47
2023-03-29T12:17:45.743Z,94819.94
2023-03-29T12:20:22.850Z,94813.09
2023-03-29T12:22:53.097Z,94799.19
2023-03-29T12:25:24.138Z,94805.78
2023-03-29T12:28:10.501Z,94791.56
2023-03-29T12:31:07.784Z,94805.13
2023-03-29T12:33:57.506Z,94792.97
2023-03-29T12:36:43.768Z,94785.13
2023-03-29T12:39:18.508Z,94794.81
2023-03-29T12:41:45.251Z,94796.72
2023-03-29T12:44:16.947Z,94810.00
2023-03-29T12:47:05.146Z,94813.06
2023-03-29T12:49:44.889Z,94809.00
2023-03-29T12:52:29.851Z,94799.56
2023-03-29T12:54:58.832Z,94799.22
2023-03-29T12:57:58.714Z,94798.69
2023-03-29T13:00:51.464Z,94796.34
2023-03-29T13:03:29.898Z,94789.75
2023-03-29T13:06:04.674Z,94788.19
2023-03-29T13:08:42.950Z,94782.75
2023-03-29T13:11:12.756Z,94782.25
2023-03-29T13:13:40.901Z,94783.97
2023-03-29T13:16:18.866Z,94785.41
2023-03-29T13:18:52.283Z,94779.00
2023-03-29T13:21:23.478Z,94775.81
2023-03-29T13:24:17.463Z,94772.34
2023-03-29T13:27:25.483Z,94769.63
2023-03-29T13:30:01.611Z,94769.31
2023-03-29T13:32:32.522Z,94768.59
2023-03-29T13:35:05.262Z,94764.41
2023-03-29T13:37:54.513Z,94754.16
2023-03-29T13:40:35.675Z,94754.94
2023-03-29T13:43:22.391Z,94737.09
2023-03-29T13:45:59.529Z,94742.56
2023-03-29T13:48:32.976Z,94748.94
2023-03-29T13:51:05.451Z,94742.53
2023-03-29T13:53:53.508Z,94736.13
2023-03-29T13:56:34.865Z,94736.31
2023-03-29T13:59:06.103Z,94729.91
2023-03-29T14:01:39.979Z,94731.41
2023-03-29T14:04:10.852Z,94730.41
2023-03-29T14:06:44.951Z,94725.13
2023-03-29T14:09:12.458Z,94720.38
2023-03-29T14:11:40.667Z,94720.00
2023-03-29T14:14:10.808Z,94720.03
2023-03-29T14:16:40.480Z,94718.25
2023-03-29T14:19:16.457Z,94714.38
2023-03-29T14:21:46.984Z,94712.28
2023-03-29T14:24:19.127Z,94706.09
2023-03-29T14:26:46.738Z,94697.47
2023-03-29T14:29:13.565Z,94698.16
2023-03-29T14:31:43.880Z,94702.16
2023-03-29T14:34:18.608Z,94695.06
2023-03-29T14:36:47.346Z,94696.75
2023-03-29T14:39:21.412Z,94697.44
2023-03-29T14:41:57.203Z,94701.72
2023-03-29T14:44:27.190Z,94694.81
2023-03-29T14:46:58.129Z,94689.56
2023-03-29T14:49:25.895Z,94693.00
2023-03-29T14:52:04.374Z,94685.13
2023-03-29T14:54:33.082Z,94680.25
2023-03-29T14:57:08.919Z,94678.47
2023-03-29T14:59:41.929Z,94670.38
2023-03-29T15:02:39.023Z,94674.97
2023-03-29T15:05:20.486Z,94670.53
2023-03-29T15:07:48.800Z,94666.69
2023-03-29T15:10:19.540Z,94671.09
2023-03-29T15:12:46.274Z,94663.34
2023-03-29T15:15:15.371Z,94660.72
2023-03-29T15:17:51.622Z,94657.47
2023-03-29T15:20:26.483Z,94649.69
2023-03-29T15:23:02.901Z,94655.78
2023-03-29T15:28:28.801Z,94645.97
2023-03-29T15:31:10.413Z,94641.78
2023-03-29T15:33:40.507Z,94643.81
2023-03-29T15:36:08.595Z,94640.06
2023-03-29T15:38:44.009Z,94640.63
2023-03-29T15:41:20.834Z,94637.41
2023-03-29T15:43:48.265Z,94640.53
2023-03-29T15:46:16.722Z,94642.19
2023-03-29T15:48:44.430Z,94638.38
2023-03-29T15:51:12.631Z,94632.47
2023-03-29T15:53:39.952Z,94619.22
2023-03-29T15:56:08.997Z,94628.25
2023-03-29T15:58:36.418Z,94621.34
2023-03-29T16:01:21.829Z,94616.00
2023-03-29T16:03:49.400Z,94604.75
2023-03-29T16:06:17.622Z,94610.53
2023-03-29T16:08:44.567Z,94615.00
2023-03-29T16:11:12.080Z,94610.31
2023-03-29T16:13:42.597Z,94609.63
2023-03-29T16:16:19.342Z,94605.50
2023-03-29T16:19:00.721Z,94601.84
2023-03-29T16:21:45.526Z,94595.25
2023-03-29T16:24:14.531Z,94596.75
2023-03-29T16:26:43.087Z,94597.69
2023-03-29T16:29:17.423Z,94602.97
2023-03-29T16:31:45.742Z,94599.72
2023-03-29T16:34:13.413Z,94593.13
2023-03-29T16:36:40.447Z,94594.31
2023-03-29T16:39:07.198Z,94593.09
2023-03-29T16:41:37.766Z,94580.56
2023-03-29T16:44:05.378Z,94586.06
2023-03-29T16:46:35.753Z,94582.06
2023-03-29T16:49:03.438Z,94589.06
2023-03-29T16:51:37.773Z,94575.66
2023-03-29T16:54:04.938Z,94576.66
2023-03-29T16:56:31.790Z,94569.25
2023-03-29T16:58:58.584Z,94582.09
2023-03-29T17:01:26.235Z,94580.34
2023-03-29T17:03:55.024Z,94583.94
2023-03-29T17:06:23.630Z,94574.16
2023-03-29T17:08:50.731Z,94572.78
2023-03-29T17:11:18.116Z,94576.78
2023-03-29T17:13:44.862Z,94564.56
2023-03-29T17:16:12.688Z,94577.91
2023-03-29T17:18:40.116Z,94583.97
2023-03-29T17:21:08.169Z,94589.09
2023-03-29T17:23:35.373Z,94585.75
2023-03-29T17:26:02.871Z,94590.03
2023-03-29T17:28:30.749Z,94591.69
2023-03-29T17:30:57.534Z,94583.97
2023-03-29T17:33:26.128Z,94579.59
2023-03-29T17:35:54.445Z,94581.75
2023-03-29T17:38:22.944Z,94582.06
2023-03-29T17:40:53.599Z,94579.25
2023-03-29T17:43:23.231Z,94587.50
2023-03-29T17:45:54.126Z,94584.00
2023-03-29T17:48:21.125Z,94571.72
2023-03-29T17:50:48.669Z,94575.97
2023-03-29T17:53:16.142Z,94579.06
2023-03-29T17:55:45.452Z,94577.00
2023-03-29T17:58:15.127Z,94569.06
2023-03-29T18:00:42.724Z,94561.81
2023-03-29T18:03:13.475Z,94560.50
2023-03-29T18:05:40.518Z,94572.78
2023-03-29T18:08:11.940Z,94579.72
2023-03-29T18:10:39.555Z,94577.22
2023-03-29T18:13:06.456Z,94575.69
2023-03-29T18:15:35.445Z,94569.44
2023-03-29T18:18:02.384Z,94564.38
2023-03-29T18:20:32.538Z,94572.44
2023-03-29T18:23:02.871Z,94578.38
2023-03-29T18:25:30.466Z,94578.91
2023-03-29T18:27:57.275Z,94587.31
2023-03-29T18:30:23.961Z,94593.94
2023-03-29T18:32:51.110Z,94586.59
2023-03-29T18:35:18.101Z,94575.28
2023-03-29T18:37:48.152Z,94569.09
2023-03-29T18:40:22.095Z,94574.25
2023-03-29T18:42:49.537Z,94572.75
2023-03-29T18:45:16.322Z,94575.34
2023-03-29T18:47:43.078Z,94576.69
2023-03-29T18:50:12.077Z,94564.41
2023-03-29T18:52:42.466Z,94571.63
2023-03-29T18:55:16.565Z,94572.16
2023-03-29T18:57:43.928Z,94577.06
2023-03-29T19:00:13.519Z,94577.44
2023-03-29T19:02:43.263Z,94577.25
2023-03-29T19:05:13.757Z,94580.53
2023-03-29T19:07:40.731Z,94594.03
2023-03-29T19:10:07.943Z,94596.41
2023-03-29T19:12:34.699Z,94606.59
2023-03-29T19:15:01.504Z,94600.56
2023-03-29T19:17:29.670Z,94592.28
2023-03-29T19:20:01.057Z,94592.19
2023-03-29T19:22:28.604Z,94597.97
2023-03-29T19:24:55.731Z,94599.69
2023-03-29T19:27:22.494Z,94589.06
2023-03-29T19:29:49.740Z,94602.91
2023-03-29T19:32:19.305Z,94605.53
2023-03-29T19:34:53.905Z,94609.19
2023-03-29T19:37:22.642Z,94606.94
2023-03-29T19:39:49.414Z,94606.88
2023-03-29T19:42:16.520Z,94607.66
2023-03-29T19:44:44.827Z,94602.44
2023-03-29T19:47:12.817Z,94605.38
2023-03-29T19:49:40.361Z,94594.03
2023-03-29T19:52:07.120Z,94604.94
2023-03-29T19:54:35.020Z,94600.59
2023-03-29T19:57:01.875Z,94599.75
2023-03-29T19:59:29.374Z,94597.72
2023-03-29T20:01:56.851Z,94592.56
2023-03-29T20:04:23.729Z,94597.22
2023-03-29T20:06:51.296Z,94591.38
2023-03-29T20:09:18.258Z,94588.91
2023-03-29T20:11:45.247Z,94586.38
2023-03-29T20:14:14.781Z,94582.09
2023-03-29T20:16:41.990Z,94585.72
2023-03-29T20:19:09.197Z,94571.50
2023-03-29T20:21:35.910Z,94572.53
2023-03-29T20:24:02.907Z,94570.28
2023-03-29T20:26:29.922Z,94577.06
2023-03-29T20:28:56.948Z,94579.09
2023-03-29T20:31:29.945Z,94579.97
2023-03-29T20:33:57.820Z,94570.03
2023-03-29T20:36:25.518Z,94563.88
2023-03-29T20:38:52.494Z,94557.94
2023-03-29T20:41:19.675Z,94560.75
2023-03-29T20:43:48.707Z,94562.69
2023-03-29T20:46:16.456Z,94551.53
2023-03-29T20:48:43.342Z,94561.94
2023-03-29T20:51:10.879Z,94565.03
2023-03-29T20:53:38.205Z,94570.47
2023-03-29T20:56:05.365Z,94570.34
2023-03-29T20:58:32.495Z,94563.28
2023-03-29T21:00:59.282Z,94564.00
2023-03-29T21:03:26.243Z,94564.19
2023-03-29T21:05:57.786Z,94560.03
2023-03-29T21:08:32.862Z,94567.84
2023-03-29T21:10:59.903Z,94568.97
2023-03-29T21:13:29.616Z,94567.84
2023-03-29T21:15:56.381Z,94571.97
2023-03-29T21:18:23.892Z,94569.34
2023-03-29T21:20:50.632Z,94571.66
2023-03-29T21:23:20.270Z,94570.16
2023-03-29T21:25:47.204Z,94568.47
2023-03-29T21:28:14.317Z,94558.97
2023-03-29T21:30:41.368Z,94559.03
2023-03-29T21:33:10.984Z,94555.59
2023-03-29T21:35:38.157Z,94555.16
2023-03-29T21:38:05.341Z,94544.63
2023-03-29T21:40:31.989Z,94546.00
2023-03-29T21:42:59.026Z,94550.66
2023-03-29T21:45:25.792Z,94552.91
2023-03-29T21:47:53.555Z,94546.97
2023-03-29T21:50:21.615Z,94549.94
2023-03-29T21:52:48.341Z,94548.28
2023-03-29T21:55:15.138Z,94544.56
2023-03-29T21:57:42.317Z,94543.47
2023-03-29T22:00:09.901Z,94535.63
2023-03-29T22:02:37.449Z,94545.63
2023-03-29T22:05:05.016Z,94538.16
2023-03-29T22:07:31.850Z,94534.28
2023-03-29T22:10:00.697Z,94524.44
2023-03-29T22:12:27.873Z,94527.00
2023-03-29T22:14:54.605Z,94521.22
2023-03-29T22:17:21.627Z,94524.38
2023-03-29T22:19:51.189Z,94519.63
2023-03-29T22:22:18.664Z,94515.28
2023-03-29T22:24:48.299Z,94509.19
2023-03-29T22:27:15.400Z,94502.81
2023-03-29T22:29:42.130Z,94496.84
2023-03-29T22:32:09.254Z,94503.25
2023-03-29T22:34:37.177Z,94505.00
2023-03-29T22:37:04.172Z,94494.84
2023-03-29T22:39:31.297Z,94484.13
2023-03-29T22:41:58.449Z,94489.53
2023-03-29T22:44:25.160Z,94493.94
2023-03-29T22:46:52.018Z,94492.81
2023-03-29T22:49:19.004Z,94496.69
2023-03-29T22:51:48.455Z,94486.47
2023-03-29T22:54:15.489Z,94486.41
2023-03-29T22:56:42.613Z,94482.25
2023-03-29T22:59:09.809Z,94487.81
2023-03-29T23:01:39.670Z,94481.50
2023-03-29T23:04:07.601Z,94479.00
2023-03-29T23:06:34.715Z,94482.22
2023-03-29T23:09:04.449Z,94477.66
2023-03-29T23:11:31.529Z,94480.69
2023-03-29T23:13:58.632Z,94476.56
2023-03-29T23:16:26.554Z,94476.84
2023-03-29T23:18:55.665Z,94472.34
2023-03-29T23:21:23.909Z,94472.25
2023-03-29T23:23:51.825Z,94466.81
2023-03-29T23:26:20.020Z,94460.19
2023-03-29T23:28:46.763Z,94449.38
2023-03-29T23:31:14.390Z,94440.13
2023-03-29T23:33:41.744Z,94432.84
2023-03-29T23:36:10.575Z,94420.56
2023-03-29T23:38:38.021Z,94416.44
2023-03-29T23:41:07.283Z,94420.59
2023-03-29T23:43:38.926Z,94426.53
2023-03-29T23:46:06.996Z,94425.91
2023-03-29T23:48:33.774Z,94424.91
2023-03-29T23:51:02.620Z,94432.66
2023-03-29T23:53:29.843Z,94424.03
2023-03-29T23:55:57.612Z,94418.88
2023-03-29T23:58:24.513Z,94415.78
